Weather Data

Pearl Creek Farm: 8878 N Farm Road 75, Walnut Grove MO 65770

<== Previous Day (Sunday 03 Jun 2018) | Next Day (Tuesday 05 Jun 2018) ==>

Summary Precipitation Data For Monday 04 June 2018

ElementValueUnits
Precipitation0"
Notes(none)
SourcePearl Creek Farm

Summary Temperature Data For Monday 04 June 2018

ElementValueUnits
High Temperature81 oF
Low Temperature57 oF
Average Temperature70 oF
High Humidity81 %
Low Humidity32 %
Average Humidity57 %
SourceSpringfield-Branson National Airport (SGF)

Detail Temperature Data For Monday 04 June 2018

Date / TimeTemp (F)RH (%)Dew Pt (F)Report Date / TimeSource
2018-06-04 00:52:00 59 78 52.0 2019-02-02 11:24:24.260017 Springfield-Branson National Airport (SGF)
2018-06-04 01:52:00 58 81 52.0 2019-02-02 11:24:24.260017 Springfield-Branson National Airport (SGF)
2018-06-04 02:52:00 57 81 51.0 2019-02-02 11:24:24.260017 Springfield-Branson National Airport (SGF)
2018-06-04 03:52:00 58 78 51.0 2019-02-02 11:24:24.260017 Springfield-Branson National Airport (SGF)
2018-06-04 04:52:00 57 81 51.0 2019-02-02 11:24:24.260017 Springfield-Branson National Airport (SGF)
2018-06-04 05:52:00 61 78 54.0 2019-02-02 11:24:24.260017 Springfield-Branson National Airport (SGF)
2018-06-04 06:52:00 68 68 57.0 2019-02-02 11:24:24.260017 Springfield-Branson National Airport (SGF)
2018-06-04 07:52:00 73 51 54.0 2019-02-02 11:24:24.260017 Springfield-Branson National Airport (SGF)
2018-06-04 08:52:00 77 37 49.0 2019-02-02 11:24:24.260017 Springfield-Branson National Airport (SGF)
2018-06-04 09:52:00 80 37 51.0 2019-02-02 11:24:24.260017 Springfield-Branson National Airport (SGF)
2018-06-04 10:52:00 80 35 50.0 2019-02-02 11:24:24.260017 Springfield-Branson National Airport (SGF)
2018-06-04 11:52:00 81 32 48.0 2019-02-02 11:24:24.260017 Springfield-Branson National Airport (SGF)
2018-06-04 12:52:00 81 34 50.0 2019-02-02 11:24:24.260017 Springfield-Branson National Airport (SGF)
2018-06-04 13:52:00 80 37 51.0 2019-02-02 11:24:24.260017 Springfield-Branson National Airport (SGF)
2018-06-04 14:52:00 79 38 51.0 2019-02-02 11:24:24.260017 Springfield-Branson National Airport (SGF)
2018-06-04 15:52:00 77 48 56.0 2019-02-02 11:24:24.260017 Springfield-Branson National Airport (SGF)
2018-06-04 16:52:00 77 47 55.0 2019-02-02 11:24:24.260017 Springfield-Branson National Airport (SGF)
2018-06-04 17:52:00 76 47 54.0 2019-02-02 11:24:24.260017 Springfield-Branson National Airport (SGF)
2018-06-04 18:52:00 75 46 53.0 2019-02-02 11:24:24.260017 Springfield-Branson National Airport (SGF)
2018-06-04 19:52:00 71 53 53.0 2019-02-02 11:24:24.260017 Springfield-Branson National Airport (SGF)
2018-06-04 20:52:00 66 63 53.0 2019-02-02 11:24:24.260017 Springfield-Branson National Airport (SGF)
2018-06-04 21:52:00 64 68 53.0 2019-02-02 11:24:24.260017 Springfield-Branson National Airport (SGF)
2018-06-04 22:52:00 64 73 55.0 2019-02-02 11:24:24.260017 Springfield-Branson National Airport (SGF)
2018-06-04 23:52:00 63 73 54.0 2019-02-02 11:24:24.260017 Springfield-Branson National Airport (SGF)

A total of 24 rows are displayed.